sensor_id;sensor_type;location;lat;lon;timestamp;P1;durP1;ratioP1;P2;durP2;ratioP2
46054;SDS011;31788;6.954;-71.872;2023-03-31T00:01:51;23.07;;;20.73;;
46054;SDS011;31788;6.954;-71.872;2023-03-31T00:04:18;23.00;;;20.07;;
46054;SDS011;31788;6.954;-71.872;2023-03-31T00:06:48;23.20;;;20.75;;
46054;SDS011;31788;6.954;-71.872;2023-03-31T00:09:18;23.75;;;21.30;;
46054;SDS011;31788;6.954;-71.872;2023-03-31T00:11:47;23.75;;;21.25;;
46054;SDS011;31788;6.954;-71.872;2023-03-31T00:14:14;24.05;;;21.55;;
46054;SDS011;31788;6.954;-71.872;2023-03-31T00:16:42;24.63;;;21.88;;
46054;SDS011;31788;6.954;-71.872;2023-03-31T00:19:09;25.20;;;21.70;;
46054;SDS011;31788;6.954;-71.872;2023-03-31T00:21:44;23.70;;;21.40;;
46054;SDS011;31788;6.954;-71.872;2023-03-31T00:24:15;24.42;;;21.70;;
46054;SDS011;31788;6.954;-71.872;2023-03-31T00:26:42;23.80;;;21.30;;
46054;SDS011;31788;6.954;-71.872;2023-03-31T00:29:10;24.55;;;21.92;;
46054;SDS011;31788;6.954;-71.872;2023-03-31T00:31:39;24.23;;;21.73;;
46054;SDS011;31788;6.954;-71.872;2023-03-31T00:34:06;25.17;;;21.83;;
46054;SDS011;31788;6.954;-71.872;2023-03-31T00:36:33;25.77;;;23.08;;
46054;SDS011;31788;6.954;-71.872;2023-03-31T00:39:02;26.83;;;23.53;;
46054;SDS011;31788;6.954;-71.872;2023-03-31T00:41:37;26.70;;;24.00;;
46054;SDS011;31788;6.954;-71.872;2023-03-31T00:44:16;28.52;;;23.63;;
46054;SDS011;31788;6.954;-71.872;2023-03-31T00:49:28;25.88;;;22.25;;
46054;SDS011;31788;6.954;-71.872;2023-03-31T00:52:14;25.75;;;22.65;;
46054;SDS011;31788;6.954;-71.872;2023-03-31T00:54:43;24.52;;;21.45;;
46054;SDS011;31788;6.954;-71.872;2023-03-31T00:57:14;22.87;;;20.50;;
46054;SDS011;31788;6.954;-71.872;2023-03-31T00:59:50;23.33;;;20.77;;
46054;SDS011;31788;6.954;-71.872;2023-03-31T01:02:20;24.17;;;21.67;;
46054;SDS011;31788;6.954;-71.872;2023-03-31T01:04:54;23.60;;;20.95;;
46054;SDS011;31788;6.954;-71.872;2023-03-31T01:07:38;22.75;;;20.35;;
46054;SDS011;31788;6.954;-71.872;2023-03-31T01:10:10;22.75;;;20.35;;
46054;SDS011;31788;6.954;-71.872;2023-03-31T01:12:38;24.95;;;21.25;;
46054;SDS011;31788;6.954;-71.872;2023-03-31T01:15:07;22.42;;;19.88;;
46054;SDS011;31788;6.954;-71.872;2023-03-31T01:17:34;25.17;;;19.70;;
46054;SDS011;31788;6.954;-71.872;2023-03-31T01:44:51;20.23;;;18.05;;
46054;SDS011;31788;6.954;-71.872;2023-03-31T01:47:32;20.42;;;18.23;;
46054;SDS011;31788;6.954;-71.872;2023-03-31T01:50:14;20.10;;;17.92;;
46054;SDS011;31788;6.954;-71.872;2023-03-31T01:52:48;20.40;;;17.58;;
46054;SDS011;31788;6.954;-71.872;2023-03-31T01:55:40;21.00;;;17.85;;
46054;SDS011;31788;6.954;-71.872;2023-03-31T01:58:26;20.73;;;18.47;;
46054;SDS011;31788;6.954;-71.872;2023-03-31T02:01:32;19.33;;;17.23;;
46054;SDS011;31788;6.954;-71.872;2023-03-31T02:03:53;20.85;;;17.50;;
46054;SDS011;31788;6.954;-71.872;2023-03-31T02:06:54;22.42;;;18.27;;
46054;SDS011;31788;6.954;-71.872;2023-03-31T02:09:28;22.02;;;17.73;;
46054;SDS011;31788;6.954;-71.872;2023-03-31T02:12:00;19.13;;;16.97;;
46054;SDS011;31788;6.954;-71.872;2023-03-31T02:14:32;19.90;;;17.80;;
46054;SDS011;31788;6.954;-71.872;2023-03-31T02:17:01;20.17;;;17.33;;
46054;SDS011;31788;6.954;-71.872;2023-03-31T02:19:34;21.90;;;17.33;;
46054;SDS011;31788;6.954;-71.872;2023-03-31T02:22:04;18.77;;;16.83;;
46054;SDS011;31788;6.954;-71.872;2023-03-31T02:24:33;20.88;;;16.98;;
46054;SDS011;31788;6.954;-71.872;2023-03-31T02:27:11;19.30;;;16.48;;
46054;SDS011;31788;6.954;-71.872;2023-03-31T02:29:39;19.80;;;16.15;;
46054;SDS011;31788;6.954;-71.872;2023-03-31T02:32:40;18.63;;;16.73;;
46054;SDS011;31788;6.954;-71.872;2023-03-31T02:35:02;17.58;;;15.68;;
46054;SDS011;31788;6.954;-71.872;2023-03-31T02:37:29;17.40;;;15.55;;
46054;SDS011;31788;6.954;-71.872;2023-03-31T02:39:57;19.38;;;15.98;;
46054;SDS011;31788;6.954;-71.872;2023-03-31T02:42:29;17.67;;;15.77;;
46054;SDS011;31788;6.954;-71.872;2023-03-31T02:45:06;17.45;;;15.48;;
46054;SDS011;31788;6.954;-71.872;2023-03-31T02:48:05;18.33;;;15.70;;
46054;SDS011;31788;6.954;-71.872;2023-03-31T03:10:05;17.55;;;15.02;;
46054;SDS011;31788;6.954;-71.872;2023-03-31T03:13:19;18.95;;;15.50;;
46054;SDS011;31788;6.954;-71.872;2023-03-31T03:15:36;18.30;;;15.33;;
46054;SDS011;31788;6.954;-71.872;2023-03-31T03:18:24;18.40;;;15.43;;
46054;SDS011;31788;6.954;-71.872;2023-03-31T03:20:51;17.85;;;15.20;;
46054;SDS011;31788;6.954;-71.872;2023-03-31T03:23:18;18.80;;;15.60;;
46054;SDS011;31788;6.954;-71.872;2023-03-31T03:25:47;17.42;;;14.93;;
46054;SDS011;31788;6.954;-71.872;2023-03-31T03:28:14;17.10;;;15.30;;
46054;SDS011;31788;6.954;-71.872;2023-03-31T03:30:41;16.30;;;14.57;;
46054;SDS011;31788;6.954;-71.872;2023-03-31T03:33:08;17.20;;;15.13;;
46054;SDS011;31788;6.954;-71.872;2023-03-31T03:35:35;17.30;;;14.55;;
46054;SDS011;31788;6.954;-71.872;2023-03-31T03:38:01;16.30;;;14.43;;
46054;SDS011;31788;6.954;-71.872;2023-03-31T03:40:28;17.10;;;14.38;;
46054;SDS011;31788;6.954;-71.872;2023-03-31T03:42:55;17.83;;;14.05;;
46054;SDS011;31788;6.954;-71.872;2023-03-31T03:45:21;16.65;;;14.35;;
46054;SDS011;31788;6.954;-71.872;2023-03-31T03:47:48;15.77;;;13.77;;
46054;SDS011;31788;6.954;-71.872;2023-03-31T03:50:15;15.52;;;13.82;;
46054;SDS011;31788;6.954;-71.872;2023-03-31T03:52:41;15.55;;;13.80;;
46054;SDS011;31788;6.954;-71.872;2023-03-31T03:55:08;15.27;;;13.27;;
46054;SDS011;31788;6.954;-71.872;2023-03-31T03:57:36;17.07;;;14.77;;
46054;SDS011;31788;6.954;-71.872;2023-03-31T04:00:03;16.23;;;13.85;;
46054;SDS011;31788;6.954;-71.872;2023-03-31T04:02:34;16.70;;;14.05;;
46054;SDS011;31788;6.954;-71.872;2023-03-31T04:05:01;17.30;;;13.88;;
46054;SDS011;31788;6.954;-71.872;2023-03-31T04:07:28;16.80;;;14.45;;
46054;SDS011;31788;6.954;-71.872;2023-03-31T04:09:55;15.60;;;13.90;;
46054;SDS011;31788;6.954;-71.872;2023-03-31T04:12:21;15.25;;;13.65;;
46054;SDS011;31788;6.954;-71.872;2023-03-31T04:14:49;16.25;;;14.48;;
46054;SDS011;31788;6.954;-71.872;2023-03-31T04:17:16;17.60;;;13.98;;
46054;SDS011;31788;6.954;-71.872;2023-03-31T04:19:42;15.80;;;13.80;;
46054;SDS011;31788;6.954;-71.872;2023-03-31T04:22:14;15.77;;;14.07;;
46054;SDS011;31788;6.954;-71.872;2023-03-31T04:24:44;16.10;;;13.63;;
46054;SDS011;31788;6.954;-71.872;2023-03-31T04:27:16;16.23;;;14.40;;
46054;SDS011;31788;6.954;-71.872;2023-03-31T04:29:45;16.80;;;14.05;;
46054;SDS011;31788;6.954;-71.872;2023-03-31T04:32:22;15.68;;;13.73;;
46054;SDS011;31788;6.954;-71.872;2023-03-31T04:34:50;16.27;;;13.95;;
46054;SDS011;31788;6.954;-71.872;2023-03-31T04:37:27;16.00;;;13.73;;
46054;SDS011;31788;6.954;-71.872;2023-03-31T04:40:02;16.35;;;13.50;;
46054;SDS011;31788;6.954;-71.872;2023-03-31T04:42:32;16.17;;;13.68;;
46054;SDS011;31788;6.954;-71.872;2023-03-31T04:45:00;15.90;;;13.70;;
46054;SDS011;31788;6.954;-71.872;2023-03-31T04:47:28;15.20;;;13.38;;
46054;SDS011;31788;6.954;-71.872;2023-03-31T04:49:54;15.83;;;13.70;;
46054;SDS011;31788;6.954;-71.872;2023-03-31T04:52:21;15.13;;;13.52;;
46054;SDS011;31788;6.954;-71.872;2023-03-31T04:54:48;15.85;;;13.50;;
46054;SDS011;31788;6.954;-71.872;2023-03-31T04:57:14;16.33;;;13.07;;
46054;SDS011;31788;6.954;-71.872;2023-03-31T04:59:41;15.50;;;13.50;;
46054;SDS011;31788;6.954;-71.872;2023-03-31T05:02:08;14.68;;;13.10;;
46054;SDS011;31788;6.954;-71.872;2023-03-31T05:04:34;17.58;;;14.27;;
46054;SDS011;31788;6.954;-71.872;2023-03-31T05:07:02;15.03;;;13.50;;
46054;SDS011;31788;6.954;-71.872;2023-03-31T05:09:29;14.53;;;12.97;;
46054;SDS011;31788;6.954;-71.872;2023-03-31T05:11:56;14.98;;;13.32;;
46054;SDS011;31788;6.954;-71.872;2023-03-31T05:14:22;15.23;;;13.38;;
46054;SDS011;31788;6.954;-71.872;2023-03-31T05:16:49;16.30;;;14.17;;
46054;SDS011;31788;6.954;-71.872;2023-03-31T05:19:15;15.27;;;13.70;;
46054;SDS011;31788;6.954;-71.872;2023-03-31T05:21:42;15.10;;;13.50;;
46054;SDS011;31788;6.954;-71.872;2023-03-31T05:24:09;15.73;;;13.23;;
46054;SDS011;31788;6.954;-71.872;2023-03-31T05:26:35;15.40;;;13.35;;
46054;SDS011;31788;6.954;-71.872;2023-03-31T05:29:02;14.63;;;13.10;;
46054;SDS011;31788;6.954;-71.872;2023-03-31T05:31:29;14.53;;;13.00;;
46054;SDS011;31788;6.954;-71.872;2023-03-31T05:33:55;15.30;;;13.70;;
46054;SDS011;31788;6.954;-71.872;2023-03-31T05:36:22;15.85;;;13.00;;
46054;SDS011;31788;6.954;-71.872;2023-03-31T05:38:48;15.40;;;13.45;;
46054;SDS011;31788;6.954;-71.872;2023-03-31T05:41:16;15.07;;;13.57;;
46054;SDS011;31788;6.954;-71.872;2023-03-31T05:43:43;14.32;;;12.82;;
46054;SDS011;31788;6.954;-71.872;2023-03-31T05:46:10;16.50;;;13.40;;
46054;SDS011;31788;6.954;-71.872;2023-03-31T05:48:37;15.83;;;13.50;;
46054;SDS011;31788;6.954;-71.872;2023-03-31T05:51:03;14.63;;;13.10;;
46054;SDS011;31788;6.954;-71.872;2023-03-31T05:53:30;15.55;;;13.85;;
46054;SDS011;31788;6.954;-71.872;2023-03-31T05:55:58;15.93;;;13.80;;
46054;SDS011;31788;6.954;-71.872;2023-03-31T05:58:26;16.50;;;13.70;;
46054;SDS011;31788;6.954;-71.872;2023-03-31T06:01:03;15.23;;;13.63;;
46054;SDS011;31788;6.954;-71.872;2023-03-31T06:03:35;15.45;;;13.52;;
46054;SDS011;31788;6.954;-71.872;2023-03-31T06:06:03;17.33;;;14.10;;
46054;SDS011;31788;6.954;-71.872;2023-03-31T06:08:32;15.90;;;13.82;;
46054;SDS011;31788;6.954;-71.872;2023-03-31T06:11:02;15.73;;;13.77;;
46054;SDS011;31788;6.954;-71.872;2023-03-31T06:13:33;16.97;;;14.10;;
46054;SDS011;31788;6.954;-71.872;2023-03-31T06:16:00;15.52;;;13.93;;
46054;SDS011;31788;6.954;-71.872;2023-03-31T06:18:28;16.52;;;13.27;;
46054;SDS011;31788;6.954;-71.872;2023-03-31T06:20:56;15.80;;;14.18;;
46054;SDS011;31788;6.954;-71.872;2023-03-31T06:23:23;15.77;;;14.07;;
46054;SDS011;31788;6.954;-71.872;2023-03-31T06:25:51;15.82;;;14.05;;
46054;SDS011;31788;6.954;-71.872;2023-03-31T06:28:19;15.73;;;14.05;;
46054;SDS011;31788;6.954;-71.872;2023-03-31T06:30:46;15.80;;;14.18;;
46054;SDS011;31788;6.954;-71.872;2023-03-31T06:33:12;16.77;;;14.68;;
46054;SDS011;31788;6.954;-71.872;2023-03-31T06:35:40;15.90;;;13.68;;
46054;SDS011;31788;6.954;-71.872;2023-03-31T06:38:07;18.23;;;14.70;;
46054;SDS011;31788;6.954;-71.872;2023-03-31T06:40:34;16.25;;;14.55;;
46054;SDS011;31788;6.954;-71.872;2023-03-31T06:43:01;15.63;;;13.93;;
46054;SDS011;31788;6.954;-71.872;2023-03-31T06:45:27;16.00;;;14.15;;
46054;SDS011;31788;6.954;-71.872;2023-03-31T06:47:54;15.88;;;14.18;;
46054;SDS011;31788;6.954;-71.872;2023-03-31T06:50:21;16.33;;;14.00;;
46054;SDS011;31788;6.954;-71.872;2023-03-31T06:52:47;17.08;;;14.23;;
46054;SDS011;31788;6.954;-71.872;2023-03-31T06:55:17;15.77;;;14.07;;
46054;SDS011;31788;6.954;-71.872;2023-03-31T06:57:44;17.00;;;14.03;;
46054;SDS011;31788;6.954;-71.872;2023-03-31T07:00:11;16.23;;;13.60;;
46054;SDS011;31788;6.954;-71.872;2023-03-31T07:02:40;15.47;;;13.87;;
46054;SDS011;31788;6.954;-71.872;2023-03-31T07:05:07;19.27;;;14.87;;
46054;SDS011;31788;6.954;-71.872;2023-03-31T07:07:35;15.70;;;14.00;;
46054;SDS011;31788;6.954;-71.872;2023-03-31T07:10:02;15.23;;;13.43;;
46054;SDS011;31788;6.954;-71.872;2023-03-31T07:12:31;17.73;;;13.98;;
46054;SDS011;31788;6.954;-71.872;2023-03-31T07:14:58;17.48;;;14.30;;
46054;SDS011;31788;6.954;-71.872;2023-03-31T07:17:25;16.63;;;14.48;;
46054;SDS011;31788;6.954;-71.872;2023-03-31T07:19:51;16.23;;;14.52;;
46054;SDS011;31788;6.954;-71.872;2023-03-31T07:22:19;16.00;;;14.40;;
46054;SDS011;31788;6.954;-71.872;2023-03-31T07:24:45;16.40;;;14.40;;
46054;SDS011;31788;6.954;-71.872;2023-03-31T07:27:12;16.90;;;14.48;;
46054;SDS011;31788;6.954;-71.872;2023-03-31T07:29:39;16.13;;;14.43;;
46054;SDS011;31788;6.954;-71.872;2023-03-31T07:32:05;15.93;;;14.23;;
46054;SDS011;31788;6.954;-71.872;2023-03-31T07:34:32;16.45;;;14.75;;
46054;SDS011;31788;6.954;-71.872;2023-03-31T07:36:59;16.45;;;14.75;;
46054;SDS011;31788;6.954;-71.872;2023-03-31T07:39:26;17.33;;;14.77;;
46054;SDS011;31788;6.954;-71.872;2023-03-31T07:41:52;15.27;;;13.68;;
46054;SDS011;31788;6.954;-71.872;2023-03-31T07:44:19;16.40;;;14.30;;
46054;SDS011;31788;6.954;-71.872;2023-03-31T07:46:47;16.67;;;14.88;;
46054;SDS011;31788;6.954;-71.872;2023-03-31T07:49:14;15.27;;;13.68;;
46054;SDS011;31788;6.954;-71.872;2023-03-31T07:51:40;15.52;;;13.73;;
46054;SDS011;31788;6.954;-71.872;2023-03-31T07:54:07;16.95;;;14.15;;
46054;SDS011;31788;6.954;-71.872;2023-03-31T07:56:34;16.90;;;15.10;;
46054;SDS011;31788;6.954;-71.872;2023-03-31T07:59:00;16.23;;;14.52;;
46054;SDS011;31788;6.954;-71.872;2023-03-31T08:01:27;17.55;;;14.27;;
46054;SDS011;31788;6.954;-71.872;2023-03-31T08:03:54;17.15;;;15.40;;
46054;SDS011;31788;6.954;-71.872;2023-03-31T08:06:22;17.15;;;14.90;;
46054;SDS011;31788;6.954;-71.872;2023-03-31T08:08:49;16.73;;;14.98;;
46054;SDS011;31788;6.954;-71.872;2023-03-31T08:11:16;16.23;;;14.23;;
46054;SDS011;31788;6.954;-71.872;2023-03-31T08:13:45;16.58;;;14.77;;
46054;SDS011;31788;6.954;-71.872;2023-03-31T08:16:12;16.63;;;14.93;;
46054;SDS011;31788;6.954;-71.872;2023-03-31T08:18:38;17.40;;;14.93;;
46054;SDS011;31788;6.954;-71.872;2023-03-31T08:21:05;17.92;;;15.43;;
46054;SDS011;31788;6.954;-71.872;2023-03-31T08:23:34;19.60;;;15.75;;
46054;SDS011;31788;6.954;-71.872;2023-03-31T08:26:08;18.65;;;15.95;;
46054;SDS011;31788;6.954;-71.872;2023-03-31T08:28:35;18.40;;;16.27;;
46054;SDS011;31788;6.954;-71.872;2023-03-31T08:31:05;19.55;;;16.70;;
46054;SDS011;31788;6.954;-71.872;2023-03-31T08:33:35;18.98;;;16.40;;
46054;SDS011;31788;6.954;-71.872;2023-03-31T08:36:02;19.27;;;16.40;;
46054;SDS011;31788;6.954;-71.872;2023-03-31T08:38:33;19.00;;;16.25;;
46054;SDS011;31788;6.954;-71.872;2023-03-31T08:41:02;18.15;;;16.25;;
46054;SDS011;31788;6.954;-71.872;2023-03-31T08:43:41;19.52;;;17.27;;
46054;SDS011;31788;6.954;-71.872;2023-03-31T08:46:11;20.35;;;16.98;;
46054;SDS011;31788;6.954;-71.872;2023-03-31T08:48:40;19.07;;;17.17;;
46054;SDS011;31788;6.954;-71.872;2023-03-31T08:54:02;20.83;;;17.48;;
46054;SDS011;31788;6.954;-71.872;2023-03-31T08:56:41;20.57;;;18.37;;
46054;SDS011;31788;6.954;-71.872;2023-03-31T08:59:25;19.85;;;17.73;;
46054;SDS011;31788;6.954;-71.872;2023-03-31T09:04:54;21.67;;;19.23;;
46054;SDS011;31788;6.954;-71.872;2023-03-31T09:13:09;23.02;;;19.48;;
46054;SDS011;31788;6.954;-71.872;2023-03-31T09:18:40;22.40;;;19.73;;
46054;SDS011;31788;6.954;-71.872;2023-03-31T09:21:22;23.20;;;20.50;;
46054;SDS011;31788;6.954;-71.872;2023-03-31T09:23:54;22.95;;;20.50;;
46054;SDS011;31788;6.954;-71.872;2023-03-31T09:26:49;22.83;;;20.40;;
46054;SDS011;31788;6.954;-71.872;2023-03-31T09:32:15;22.25;;;19.80;;
46054;SDS011;31788;6.954;-71.872;2023-03-31T09:34:44;22.83;;;20.42;;
46054;SDS011;31788;6.954;-71.872;2023-03-31T09:37:12;22.80;;;20.40;;
46054;SDS011;31788;6.954;-71.872;2023-03-31T09:39:39;23.30;;;20.85;;
46054;SDS011;31788;6.954;-71.872;2023-03-31T09:42:07;23.20;;;20.70;;
46054;SDS011;31788;6.954;-71.872;2023-03-31T09:44:39;23.30;;;20.48;;
46054;SDS011;31788;6.954;-71.872;2023-03-31T09:47:28;23.10;;;20.70;;
46054;SDS011;31788;6.954;-71.872;2023-03-31T09:50:03;22.83;;;20.42;;
46054;SDS011;31788;6.954;-71.872;2023-03-31T09:52:33;23.65;;;20.90;;
46054;SDS011;31788;6.954;-71.872;2023-03-31T09:55:05;25.05;;;21.17;;
46054;SDS011;31788;6.954;-71.872;2023-03-31T09:57:44;24.00;;;20.90;;
46054;SDS011;31788;6.954;-71.872;2023-03-31T10:03:02;23.17;;;20.85;;
46054;SDS011;31788;6.954;-71.872;2023-03-31T10:05:38;23.50;;;20.98;;
46054;SDS011;31788;6.954;-71.872;2023-03-31T10:13:46;23.58;;;20.80;;
46054;SDS011;31788;6.954;-71.872;2023-03-31T10:16:22;24.08;;;21.45;;
46054;SDS011;31788;6.954;-71.872;2023-03-31T10:18:55;23.77;;;21.27;;
46054;SDS011;31788;6.954;-71.872;2023-03-31T10:21:45;23.70;;;21.20;;
46054;SDS011;31788;6.954;-71.872;2023-03-31T10:24:17;23.40;;;20.88;;
46054;SDS011;31788;6.954;-71.872;2023-03-31T10:26:47;23.05;;;20.58;;
46054;SDS011;31788;6.954;-71.872;2023-03-31T10:34:41;23.88;;;21.42;;
46054;SDS011;31788;6.954;-71.872;2023-03-31T10:37:10;23.45;;;21.02;;
46054;SDS011;31788;6.954;-71.872;2023-03-31T10:39:41;22.92;;;20.42;;
46054;SDS011;31788;6.954;-71.872;2023-03-31T10:42:10;23.17;;;20.70;;
46054;SDS011;31788;6.954;-71.872;2023-03-31T10:44:44;24.48;;;21.33;;
46054;SDS011;31788;6.954;-71.872;2023-03-31T10:49:47;23.30;;;20.80;;
46054;SDS011;31788;6.954;-71.872;2023-03-31T10:52:17;24.77;;;20.60;;
46054;SDS011;31788;6.954;-71.872;2023-03-31T10:54:58;23.98;;;21.23;;
46054;SDS011;31788;6.954;-71.872;2023-03-31T10:57:31;22.75;;;20.27;;
46054;SDS011;31788;6.954;-71.872;2023-03-31T11:00:17;23.55;;;20.60;;
46054;SDS011;31788;6.954;-71.872;2023-03-31T11:11:19;22.52;;;20.13;;
46054;SDS011;31788;6.954;-71.872;2023-03-31T11:13:59;23.40;;;20.83;;
46054;SDS011;31788;6.954;-71.872;2023-03-31T11:19:21;22.48;;;20.10;;
46054;SDS011;31788;6.954;-71.872;2023-03-31T11:36:27;22.40;;;20.00;;
46054;SDS011;31788;6.954;-71.872;2023-03-31T11:38:56;23.77;;;20.87;;
46054;SDS011;31788;6.954;-71.872;2023-03-31T11:41:51;23.67;;;19.90;;
46054;SDS011;31788;6.954;-71.872;2023-03-31T11:44:34;23.20;;;20.42;;
46054;SDS011;31788;6.954;-71.872;2023-03-31T11:47:11;24.40;;;20.98;;
46054;SDS011;31788;6.954;-71.872;2023-03-31T11:49:50;24.35;;;20.48;;
46054;SDS011;31788;6.954;-71.872;2023-03-31T11:52:40;23.02;;;20.58;;
46054;SDS011;31788;6.954;-71.872;2023-03-31T11:55:28;22.98;;;20.30;;
46054;SDS011;31788;6.954;-71.872;2023-03-31T12:00:35;23.58;;;20.58;;
46054;SDS011;31788;6.954;-71.872;2023-03-31T12:06:00;22.77;;;20.25;;
46054;SDS011;31788;6.954;-71.872;2023-03-31T12:08:36;23.20;;;20.70;;
46054;SDS011;31788;6.954;-71.872;2023-03-31T12:16:45;23.77;;;21.20;;
46054;SDS011;31788;6.954;-71.872;2023-03-31T12:19:21;23.53;;;20.93;;
46054;SDS011;31788;6.954;-71.872;2023-03-31T12:21:57;23.55;;;20.98;;
46054;SDS011;31788;6.954;-71.872;2023-03-31T12:24:47;23.80;;;21.33;;
46054;SDS011;31788;6.954;-71.872;2023-03-31T12:27:22;24.58;;;20.95;;
46054;SDS011;31788;6.954;-71.872;2023-03-31T12:29:57;24.05;;;21.45;;
46054;SDS011;31788;6.954;-71.872;2023-03-31T12:32:30;25.75;;;22.40;;
46054;SDS011;31788;6.954;-71.872;2023-03-31T12:37:45;25.50;;;22.77;;
46054;SDS011;31788;6.954;-71.872;2023-03-31T12:40:23;25.88;;;23.05;;
46054;SDS011;31788;6.954;-71.872;2023-03-31T12:54:34;24.77;;;22.08;;
46054;SDS011;31788;6.954;-71.872;2023-03-31T12:57:04;25.25;;;21.92;;
46054;SDS011;31788;6.954;-71.872;2023-03-31T12:59:42;28.52;;;23.48;;
46054;SDS011;31788;6.954;-71.872;2023-03-31T13:04:40;27.23;;;23.27;;
46054;SDS011;31788;6.954;-71.872;2023-03-31T13:07:40;25.83;;;22.60;;
46054;SDS011;31788;6.954;-71.872;2023-03-31T13:12:39;25.55;;;22.95;;
46054;SDS011;31788;6.954;-71.872;2023-03-31T13:15:11;31.13;;;24.02;;
46054;SDS011;31788;6.954;-71.872;2023-03-31T13:17:42;26.45;;;23.35;;
46054;SDS011;31788;6.954;-71.872;2023-03-31T13:20:34;26.70;;;22.75;;
46054;SDS011;31788;6.954;-71.872;2023-03-31T13:25:45;30.73;;;24.02;;
46054;SDS011;31788;6.954;-71.872;2023-03-31T13:30:54;26.35;;;22.48;;
46054;SDS011;31788;6.954;-71.872;2023-03-31T13:34:26;26.88;;;22.95;;
46054;SDS011;31788;6.954;-71.872;2023-03-31T13:47:33;27.02;;;23.23;;
46054;SDS011;31788;6.954;-71.872;2023-03-31T13:53:10;25.98;;;22.38;;
46054;SDS011;31788;6.954;-71.872;2023-03-31T13:58:37;24.67;;;22.08;;
46054;SDS011;31788;6.954;-71.872;2023-03-31T14:09:20;24.13;;;21.23;;
46054;SDS011;31788;6.954;-71.872;2023-03-31T14:11:57;24.90;;;21.23;;
46054;SDS011;31788;6.954;-71.872;2023-03-31T14:14:43;26.77;;;22.17;;
46054;SDS011;31788;6.954;-71.872;2023-03-31T14:17:09;25.60;;;21.40;;
46054;SDS011;31788;6.954;-71.872;2023-03-31T14:22:21;25.65;;;21.60;;
46054;SDS011;31788;6.954;-71.872;2023-03-31T14:27:52;26.42;;;22.23;;
46054;SDS011;31788;6.954;-71.872;2023-03-31T14:30:32;24.30;;;21.70;;
46054;SDS011;31788;6.954;-71.872;2023-03-31T14:38:52;24.45;;;21.90;;
46054;SDS011;31788;6.954;-71.872;2023-03-31T14:41:25;26.42;;;23.17;;
46054;SDS011;31788;6.954;-71.872;2023-03-31T14:43:55;26.27;;;22.83;;
46054;SDS011;31788;6.954;-71.872;2023-03-31T14:46:25;25.70;;;22.90;;
46054;SDS011;31788;6.954;-71.872;2023-03-31T14:48:51;25.20;;;22.60;;
46054;SDS011;31788;6.954;-71.872;2023-03-31T14:51:22;26.13;;;22.52;;
46054;SDS011;31788;6.954;-71.872;2023-03-31T14:53:59;25.43;;;22.73;;
46054;SDS011;31788;6.954;-71.872;2023-03-31T14:56:30;27.08;;;23.40;;
46054;SDS011;31788;6.954;-71.872;2023-03-31T14:59:00;30.60;;;25.40;;
46054;SDS011;31788;6.954;-71.872;2023-03-31T15:01:29;32.95;;;27.42;;
46054;SDS011;31788;6.954;-71.872;2023-03-31T15:04:08;30.13;;;26.40;;
46054;SDS011;31788;6.954;-71.872;2023-03-31T15:06:43;31.10;;;26.90;;
46054;SDS011;31788;6.954;-71.872;2023-03-31T15:09:18;30.58;;;27.20;;
46054;SDS011;31788;6.954;-71.872;2023-03-31T15:11:47;30.30;;;27.07;;
46054;SDS011;31788;6.954;-71.872;2023-03-31T15:14:21;30.58;;;26.55;;
46054;SDS011;31788;6.954;-71.872;2023-03-31T15:16:48;28.98;;;25.73;;
46054;SDS011;31788;6.954;-71.872;2023-03-31T15:19:17;27.88;;;24.98;;
46054;SDS011;31788;6.954;-71.872;2023-03-31T15:21:49;28.65;;;25.55;;
46054;SDS011;31788;6.954;-71.872;2023-03-31T15:24:26;28.00;;;25.02;;
46054;SDS011;31788;6.954;-71.872;2023-03-31T15:26:59;26.77;;;23.98;;
46054;SDS011;31788;6.954;-71.872;2023-03-31T15:32:12;28.10;;;25.10;;
46054;SDS011;31788;6.954;-71.872;2023-03-31T15:34:49;28.60;;;25.50;;
46054;SDS011;31788;6.954;-71.872;2023-03-31T15:37:20;28.48;;;24.55;;
46054;SDS011;31788;6.954;-71.872;2023-03-31T15:39:49;28.30;;;25.23;;
46054;SDS011;31788;6.954;-71.872;2023-03-31T15:42:16;28.38;;;25.38;;
46054;SDS011;31788;6.954;-71.872;2023-03-31T15:44:44;28.60;;;25.60;;
46054;SDS011;31788;6.954;-71.872;2023-03-31T15:47:18;29.73;;;26.50;;
46054;SDS011;31788;6.954;-71.872;2023-03-31T15:49:50;30.65;;;27.35;;
46054;SDS011;31788;6.954;-71.872;2023-03-31T15:52:25;30.65;;;27.35;;
46054;SDS011;31788;6.954;-71.872;2023-03-31T15:55:00;32.35;;;28.90;;
46054;SDS011;31788;6.954;-71.872;2023-03-31T15:57:49;33.70;;;30.05;;
46054;SDS011;31788;6.954;-71.872;2023-03-31T16:03:13;34.07;;;30.40;;
46054;SDS011;31788;6.954;-71.872;2023-03-31T16:06:04;33.88;;;30.27;;
46054;SDS011;31788;6.954;-71.872;2023-03-31T16:08:36;35.17;;;31.48;;
46054;SDS011;31788;6.954;-71.872;2023-03-31T16:11:51;37.97;;;32.25;;
46054;SDS011;31788;6.954;-71.872;2023-03-31T16:14:04;37.20;;;33.17;;
46054;SDS011;31788;6.954;-71.872;2023-03-31T16:16:37;37.10;;;33.20;;
46054;SDS011;31788;6.954;-71.872;2023-03-31T16:19:06;37.20;;;32.80;;
46054;SDS011;31788;6.954;-71.872;2023-03-31T16:21:45;36.20;;;32.33;;
46054;SDS011;31788;6.954;-71.872;2023-03-31T16:24:20;36.25;;;32.45;;
46054;SDS011;31788;6.954;-71.872;2023-03-31T16:26:59;37.42;;;33.40;;
46054;SDS011;31788;6.954;-71.872;2023-03-31T16:29:31;37.55;;;33.55;;
46054;SDS011;31788;6.954;-71.872;2023-03-31T16:32:11;37.60;;;33.50;;
46054;SDS011;31788;6.954;-71.872;2023-03-31T16:34:52;38.17;;;33.85;;
46054;SDS011;31788;6.954;-71.872;2023-03-31T16:37:21;38.15;;;34.00;;
46054;SDS011;31788;6.954;-71.872;2023-03-31T16:39:49;38.75;;;34.20;;
46054;SDS011;31788;6.954;-71.872;2023-03-31T16:42:16;37.00;;;33.10;;
46054;SDS011;31788;6.954;-71.872;2023-03-31T16:44:43;38.78;;;34.58;;
46054;SDS011;31788;6.954;-71.872;2023-03-31T16:47:12;37.92;;;33.47;;
46054;SDS011;31788;6.954;-71.872;2023-03-31T16:49:40;37.67;;;33.58;;
46054;SDS011;31788;6.954;-71.872;2023-03-31T16:52:07;36.85;;;32.92;;
46054;SDS011;31788;6.954;-71.872;2023-03-31T16:54:33;37.63;;;33.20;;
46054;SDS011;31788;6.954;-71.872;2023-03-31T16:57:00;36.45;;;32.63;;
46054;SDS011;31788;6.954;-71.872;2023-03-31T16:59:27;37.72;;;33.70;;
46054;SDS011;31788;6.954;-71.872;2023-03-31T17:01:55;36.92;;;32.97;;
46054;SDS011;31788;6.954;-71.872;2023-03-31T17:04:21;36.83;;;32.85;;
46054;SDS011;31788;6.954;-71.872;2023-03-31T17:06:48;36.75;;;32.65;;
46054;SDS011;31788;6.954;-71.872;2023-03-31T17:09:15;35.72;;;31.83;;
46054;SDS011;31788;6.954;-71.872;2023-03-31T17:11:42;37.13;;;32.92;;
46054;SDS011;31788;6.954;-71.872;2023-03-31T17:14:09;36.70;;;32.50;;
46054;SDS011;31788;6.954;-71.872;2023-03-31T17:16:36;36.38;;;32.45;;
46054;SDS011;31788;6.954;-71.872;2023-03-31T17:19:02;37.63;;;33.28;;
46054;SDS011;31788;6.954;-71.872;2023-03-31T17:21:29;36.58;;;32.58;;
46054;SDS011;31788;6.954;-71.872;2023-03-31T17:23:56;37.00;;;33.08;;
46054;SDS011;31788;6.954;-71.872;2023-03-31T17:26:22;37.28;;;33.22;;
46054;SDS011;31788;6.954;-71.872;2023-03-31T17:28:49;35.75;;;31.85;;
46054;SDS011;31788;6.954;-71.872;2023-03-31T17:31:17;35.58;;;31.88;;
46054;SDS011;31788;6.954;-71.872;2023-03-31T17:33:45;35.70;;;32.00;;
46054;SDS011;31788;6.954;-71.872;2023-03-31T17:36:12;35.08;;;31.38;;
46054;SDS011;31788;6.954;-71.872;2023-03-31T17:38:40;34.70;;;30.88;;